sensor_id;sensor_type;location;lat;lon;timestamp;P1;durP1;ratioP1;P2;durP2;ratioP2
63782;SDS011;49925;52.522;5.732;2023-12-29T10:56:16;23.53;;;4.53;;
63782;SDS011;49925;52.522;5.732;2023-12-29T10:58:56;21.63;;;3.30;;
63782;SDS011;49925;52.522;5.732;2023-12-29T11:01:26;20.45;;;3.38;;
63782;SDS011;49925;52.522;5.732;2023-12-29T11:04:00;26.77;;;3.25;;
63782;SDS011;49925;52.522;5.732;2023-12-29T11:06:39;21.90;;;3.22;;
63782;SDS011;49925;52.522;5.732;2023-12-29T11:09:14;35.60;;;3.92;;
63782;SDS011;49925;52.522;5.732;2023-12-29T11:11:46;23.55;;;3.55;;
63782;SDS011;49925;52.522;5.732;2023-12-29T11:14:14;27.70;;;3.80;;
63782;SDS011;49925;52.522;5.732;2023-12-29T11:16:41;23.25;;;3.70;;
63782;SDS011;49925;52.522;5.732;2023-12-29T11:19:09;29.63;;;3.60;;
63782;SDS011;49925;52.522;5.732;2023-12-29T11:21:41;28.35;;;3.65;;
63782;SDS011;49925;52.522;5.732;2023-12-29T11:24:09;31.25;;;3.80;;
63782;SDS011;49925;52.522;5.732;2023-12-29T11:26:38;33.25;;;3.67;;
63782;SDS011;49925;52.522;5.732;2023-12-29T11:29:06;24.38;;;3.20;;
63782;SDS011;49925;52.522;5.732;2023-12-29T11:31:35;32.88;;;4.63;;
63782;SDS011;49925;52.522;5.732;2023-12-29T11:34:07;27.60;;;3.88;;
63782;SDS011;49925;52.522;5.732;2023-12-29T11:36:41;27.38;;;4.57;;
63782;SDS011;49925;52.522;5.732;2023-12-29T11:41:51;29.73;;;3.55;;
63782;SDS011;49925;52.522;5.732;2023-12-29T11:44:28;28.67;;;3.45;;
63782;SDS011;49925;52.522;5.732;2023-12-29T11:46:56;33.10;;;3.13;;
63782;SDS011;49925;52.522;5.732;2023-12-29T11:49:27;33.20;;;4.10;;
63782;SDS011;49925;52.522;5.732;2023-12-29T11:51:54;18.73;;;3.10;;
63782;SDS011;49925;52.522;5.732;2023-12-29T11:54:22;24.90;;;3.45;;
63782;SDS011;49925;52.522;5.732;2023-12-29T11:56:51;25.60;;;2.95;;
63782;SDS011;49925;52.522;5.732;2023-12-29T11:59:20;27.23;;;3.78;;
63782;SDS011;49925;52.522;5.732;2023-12-29T12:01:52;22.17;;;2.97;;
63782;SDS011;49925;52.522;5.732;2023-12-29T12:09:48;18.50;;;2.97;;
63782;SDS011;49925;52.522;5.732;2023-12-29T12:17:54;22.05;;;3.30;;
63782;SDS011;49925;52.522;5.732;2023-12-29T12:20:25;31.70;;;3.03;;
63782;SDS011;49925;52.522;5.732;2023-12-29T12:22:58;27.85;;;3.60;;
63782;SDS011;49925;52.522;5.732;2023-12-29T12:25:28;17.45;;;2.30;;
63782;SDS011;49925;52.522;5.732;2023-12-29T12:27:57;25.55;;;2.95;;
63782;SDS011;49925;52.522;5.732;2023-12-29T12:30:25;19.73;;;3.10;;
63782;SDS011;49925;52.522;5.732;2023-12-29T12:32:58;18.67;;;3.08;;
63782;SDS011;49925;52.522;5.732;2023-12-29T12:35:31;22.23;;;3.22;;
63782;SDS011;49925;52.522;5.732;2023-12-29T12:40:38;17.95;;;3.25;;
63782;SDS011;49925;52.522;5.732;2023-12-29T12:43:06;20.92;;;3.75;;
63782;SDS011;49925;52.522;5.732;2023-12-29T12:45:35;23.00;;;3.05;;
63782;SDS011;49925;52.522;5.732;2023-12-29T12:48:12;21.30;;;3.40;;
63782;SDS011;49925;52.522;5.732;2023-12-29T12:50:54;19.95;;;3.25;;
63782;SDS011;49925;52.522;5.732;2023-12-29T12:53:23;24.92;;;3.40;;
63782;SDS011;49925;52.522;5.732;2023-12-29T12:55:51;27.63;;;3.20;;
63782;SDS011;49925;52.522;5.732;2023-12-29T12:58:19;28.70;;;3.10;;
63782;SDS011;49925;52.522;5.732;2023-12-29T13:00:50;21.58;;;4.18;;
63782;SDS011;49925;52.522;5.732;2023-12-29T13:03:21;32.38;;;3.75;;
63782;SDS011;49925;52.522;5.732;2023-12-29T13:05:48;26.25;;;3.83;;
63782;SDS011;49925;52.522;5.732;2023-12-29T13:08:16;28.73;;;3.92;;
63782;SDS011;49925;52.522;5.732;2023-12-29T13:10:59;27.35;;;3.78;;
63782;SDS011;49925;52.522;5.732;2023-12-29T13:13:40;29.42;;;3.47;;
63782;SDS011;49925;52.522;5.732;2023-12-29T13:16:10;21.67;;;3.08;;
63782;SDS011;49925;52.522;5.732;2023-12-29T13:18:37;22.00;;;3.08;;
63782;SDS011;49925;52.522;5.732;2023-12-29T13:21:05;18.00;;;2.72;;
63782;SDS011;49925;52.522;5.732;2023-12-29T13:23:33;20.95;;;3.00;;
63782;SDS011;49925;52.522;5.732;2023-12-29T13:26:07;28.92;;;5.38;;
63782;SDS011;49925;52.522;5.732;2023-12-29T13:28:36;20.83;;;2.95;;
63782;SDS011;49925;52.522;5.732;2023-12-29T13:31:05;22.65;;;3.22;;
63782;SDS011;49925;52.522;5.732;2023-12-29T13:39:21;25.98;;;3.22;;
63782;SDS011;49925;52.522;5.732;2023-12-29T13:42:27;27.30;;;3.55;;
63782;SDS011;49925;52.522;5.732;2023-12-29T13:44:57;16.88;;;2.60;;
63782;SDS011;49925;52.522;5.732;2023-12-29T13:47:26;17.88;;;2.80;;
63782;SDS011;49925;52.522;5.732;2023-12-29T13:49:53;22.60;;;3.47;;
63782;SDS011;49925;52.522;5.732;2023-12-29T13:52:21;22.92;;;3.10;;
63782;SDS011;49925;52.522;5.732;2023-12-29T13:54:48;28.17;;;3.65;;
63782;SDS011;49925;52.522;5.732;2023-12-29T13:57:16;30.00;;;3.95;;
63782;SDS011;49925;52.522;5.732;2023-12-29T13:59:47;27.00;;;3.42;;
63782;SDS011;49925;52.522;5.732;2023-12-29T14:02:20;16.20;;;3.40;;
63782;SDS011;49925;52.522;5.732;2023-12-29T14:05:14;23.75;;;3.35;;
63782;SDS011;49925;52.522;5.732;2023-12-29T14:10:29;27.10;;;3.20;;
63782;SDS011;49925;52.522;5.732;2023-12-29T14:13:14;19.90;;;2.78;;
63782;SDS011;49925;52.522;5.732;2023-12-29T14:15:43;20.90;;;3.75;;
63782;SDS011;49925;52.522;5.732;2023-12-29T14:18:21;34.88;;;3.30;;
63782;SDS011;49925;52.522;5.732;2023-12-29T14:21:23;23.00;;;2.95;;
63782;SDS011;49925;52.522;5.732;2023-12-29T14:24:00;20.40;;;3.33;;
63782;SDS011;49925;52.522;5.732;2023-12-29T14:26:41;21.20;;;3.33;;
63782;SDS011;49925;52.522;5.732;2023-12-29T14:29:18;25.42;;;3.08;;
63782;SDS011;49925;52.522;5.732;2023-12-29T14:31:47;21.58;;;3.63;;
63782;SDS011;49925;52.522;5.732;2023-12-29T14:34:18;21.10;;;2.80;;
63782;SDS011;49925;52.522;5.732;2023-12-29T14:36:46;26.00;;;4.07;;
63782;SDS011;49925;52.522;5.732;2023-12-29T14:39:13;17.38;;;3.22;;
63782;SDS011;49925;52.522;5.732;2023-12-29T14:41:44;22.25;;;3.20;;
63782;SDS011;49925;52.522;5.732;2023-12-29T14:44:12;18.70;;;2.80;;
63782;SDS011;49925;52.522;5.732;2023-12-29T14:46:39;23.23;;;3.10;;
63782;SDS011;49925;52.522;5.732;2023-12-29T14:49:07;22.48;;;2.85;;
63782;SDS011;49925;52.522;5.732;2023-12-29T14:51:35;18.48;;;3.10;;
63782;SDS011;49925;52.522;5.732;2023-12-29T14:54:02;22.63;;;3.92;;
63782;SDS011;49925;52.522;5.732;2023-12-29T14:56:30;28.98;;;3.95;;
63782;SDS011;49925;52.522;5.732;2023-12-29T14:58:57;15.43;;;3.13;;
63782;SDS011;49925;52.522;5.732;2023-12-29T15:01:25;18.40;;;3.30;;
63782;SDS011;49925;52.522;5.732;2023-12-29T15:03:54;20.27;;;2.95;;
63782;SDS011;49925;52.522;5.732;2023-12-29T15:06:21;18.85;;;2.63;;
63782;SDS011;49925;52.522;5.732;2023-12-29T15:08:49;15.25;;;2.47;;
63782;SDS011;49925;52.522;5.732;2023-12-29T15:11:16;13.98;;;2.55;;
63782;SDS011;49925;52.522;5.732;2023-12-29T15:13:45;16.70;;;2.53;;
63782;SDS011;49925;52.522;5.732;2023-12-29T15:16:12;13.05;;;2.47;;
63782;SDS011;49925;52.522;5.732;2023-12-29T15:18:40;14.02;;;2.58;;
63782;SDS011;49925;52.522;5.732;2023-12-29T16:42:24;8.13;;;2.40;;
63782;SDS011;49925;52.522;5.732;2023-12-29T16:44:51;15.57;;;4.00;;
63782;SDS011;49925;52.522;5.732;2023-12-29T16:47:18;13.13;;;3.50;;
63782;SDS011;49925;52.522;5.732;2023-12-29T17:19:19;15.13;;;3.65;;
63782;SDS011;49925;52.522;5.732;2023-12-29T17:21:48;8.35;;;3.75;;
63782;SDS011;49925;52.522;5.732;2023-12-29T17:24:16;13.85;;;3.88;;
63782;SDS011;49925;52.522;5.732;2023-12-29T17:26:47;21.73;;;6.38;;
63782;SDS011;49925;52.522;5.732;2023-12-29T17:29:15;14.93;;;4.18;;
63782;SDS011;49925;52.522;5.732;2023-12-29T17:31:42;18.08;;;4.90;;
63782;SDS011;49925;52.522;5.732;2023-12-29T17:34:10;21.90;;;5.20;;
63782;SDS011;49925;52.522;5.732;2023-12-29T17:36:37;17.10;;;5.43;;
63782;SDS011;49925;52.522;5.732;2023-12-29T17:39:04;15.18;;;4.13;;
63782;SDS011;49925;52.522;5.732;2023-12-29T17:41:31;16.88;;;3.53;;
63782;SDS011;49925;52.522;5.732;2023-12-29T17:43:59;13.35;;;4.15;;
63782;SDS011;49925;52.522;5.732;2023-12-29T17:46:28;14.57;;;4.57;;
63782;SDS011;49925;52.522;5.732;2023-12-29T17:48:56;18.63;;;4.20;;
63782;SDS011;49925;52.522;5.732;2023-12-29T17:51:23;11.27;;;3.80;;
63782;SDS011;49925;52.522;5.732;2023-12-29T17:53:55;14.88;;;4.88;;
63782;SDS011;49925;52.522;5.732;2023-12-29T17:56:22;22.98;;;4.90;;
63782;SDS011;49925;52.522;5.732;2023-12-29T17:58:50;15.50;;;4.15;;
63782;SDS011;49925;52.522;5.732;2023-12-29T18:01:17;18.45;;;3.90;;
63782;SDS011;49925;52.522;5.732;2023-12-29T18:03:44;17.25;;;4.00;;
63782;SDS011;49925;52.522;5.732;2023-12-29T18:06:12;19.80;;;4.40;;
63782;SDS011;49925;52.522;5.732;2023-12-29T18:08:40;24.30;;;5.57;;
63782;SDS011;49925;52.522;5.732;2023-12-29T18:11:08;14.55;;;5.95;;
63782;SDS011;49925;52.522;5.732;2023-12-29T18:13:35;18.02;;;5.03;;
63782;SDS011;49925;52.522;5.732;2023-12-29T18:16:09;13.30;;;4.30;;
63782;SDS011;49925;52.522;5.732;2023-12-29T18:18:37;13.27;;;3.47;;
63782;SDS011;49925;52.522;5.732;2023-12-29T18:21:11;16.63;;;3.33;;
63782;SDS011;49925;52.522;5.732;2023-12-29T18:23:42;19.52;;;3.80;;
63782;SDS011;49925;52.522;5.732;2023-12-29T18:26:10;14.38;;;3.10;;
63782;SDS011;49925;52.522;5.732;2023-12-29T18:28:38;15.95;;;3.00;;
63782;SDS011;49925;52.522;5.732;2023-12-29T18:31:06;15.05;;;3.70;;
63782;SDS011;49925;52.522;5.732;2023-12-29T18:33:33;13.55;;;3.45;;
63782;SDS011;49925;52.522;5.732;2023-12-29T18:36:03;10.77;;;2.90;;
63782;SDS011;49925;52.522;5.732;2023-12-29T18:38:31;15.27;;;3.60;;
63782;SDS011;49925;52.522;5.732;2023-12-29T18:40:58;19.48;;;3.20;;
63782;SDS011;49925;52.522;5.732;2023-12-29T18:43:34;18.23;;;3.60;;
63782;SDS011;49925;52.522;5.732;2023-12-29T18:46:03;14.30;;;3.45;;
63782;SDS011;49925;52.522;5.732;2023-12-29T18:48:31;10.82;;;3.22;;
63782;SDS011;49925;52.522;5.732;2023-12-29T18:51:02;15.45;;;5.05;;
63782;SDS011;49925;52.522;5.732;2023-12-29T18:53:29;18.50;;;3.53;;
63782;SDS011;49925;52.522;5.732;2023-12-29T18:55:57;19.00;;;4.70;;
63782;SDS011;49925;52.522;5.732;2023-12-29T18:58:24;10.45;;;4.20;;
63782;SDS011;49925;52.522;5.732;2023-12-29T19:00:51;13.82;;;4.45;;
63782;SDS011;49925;52.522;5.732;2023-12-29T19:03:22;12.23;;;3.10;;
63782;SDS011;49925;52.522;5.732;2023-12-29T19:05:49;15.00;;;4.10;;
63782;SDS011;49925;52.522;5.732;2023-12-29T19:08:18;10.93;;;3.10;;
63782;SDS011;49925;52.522;5.732;2023-12-29T19:10:45;9.40;;;2.83;;
63782;SDS011;49925;52.522;5.732;2023-12-29T19:13:12;8.57;;;3.53;;
63782;SDS011;49925;52.522;5.732;2023-12-29T19:15:40;11.82;;;3.58;;
63782;SDS011;49925;52.522;5.732;2023-12-29T19:18:07;9.50;;;2.63;;
63782;SDS011;49925;52.522;5.732;2023-12-29T19:20:34;10.75;;;3.13;;
63782;SDS011;49925;52.522;5.732;2023-12-29T19:23:01;7.38;;;2.58;;
63782;SDS011;49925;52.522;5.732;2023-12-29T19:25:29;13.13;;;3.08;;
63782;SDS011;49925;52.522;5.732;2023-12-29T19:27:57;19.00;;;3.33;;
63782;SDS011;49925;52.522;5.732;2023-12-29T19:30:26;12.13;;;3.50;;
63782;SDS011;49925;52.522;5.732;2023-12-29T19:32:53;17.23;;;3.20;;
63782;SDS011;49925;52.522;5.732;2023-12-29T19:35:21;10.98;;;3.50;;
63782;SDS011;49925;52.522;5.732;2023-12-29T19:37:48;12.00;;;3.33;;
63782;SDS011;49925;52.522;5.732;2023-12-29T19:40:18;18.23;;;3.88;;
63782;SDS011;49925;52.522;5.732;2023-12-29T19:42:46;11.98;;;2.80;;
63782;SDS011;49925;52.522;5.732;2023-12-29T19:45:13;14.40;;;2.92;;
63782;SDS011;49925;52.522;5.732;2023-12-29T19:47:42;11.05;;;2.92;;
63782;SDS011;49925;52.522;5.732;2023-12-29T19:50:10;19.55;;;3.08;;
63782;SDS011;49925;52.522;5.732;2023-12-29T19:52:37;14.45;;;3.05;;
63782;SDS011;49925;52.522;5.732;2023-12-29T19:55:05;7.32;;;2.95;;
63782;SDS011;49925;52.522;5.732;2023-12-29T19:57:32;12.95;;;2.97;;
63782;SDS011;49925;52.522;5.732;2023-12-29T19:59:59;15.30;;;3.00;;
63782;SDS011;49925;52.522;5.732;2023-12-29T20:02:27;17.35;;;4.18;;
63782;SDS011;49925;52.522;5.732;2023-12-29T20:04:54;13.23;;;3.70;;
63782;SDS011;49925;52.522;5.732;2023-12-29T20:07:21;14.73;;;4.00;;
63782;SDS011;49925;52.522;5.732;2023-12-29T20:09:48;21.50;;;5.63;;
63782;SDS011;49925;52.522;5.732;2023-12-29T20:12:16;15.73;;;3.92;;
63782;SDS011;49925;52.522;5.732;2023-12-29T20:14:48;19.73;;;4.18;;
63782;SDS011;49925;52.522;5.732;2023-12-29T20:17:18;25.85;;;4.50;;
63782;SDS011;49925;52.522;5.732;2023-12-29T20:19:49;15.63;;;3.97;;
63782;SDS011;49925;52.522;5.732;2023-12-29T20:22:17;17.42;;;4.20;;
63782;SDS011;49925;52.522;5.732;2023-12-29T20:24:46;16.38;;;4.25;;
63782;SDS011;49925;52.522;5.732;2023-12-29T20:27:14;20.98;;;4.32;;
63782;SDS011;49925;52.522;5.732;2023-12-29T20:29:41;17.10;;;4.40;;
63782;SDS011;49925;52.522;5.732;2023-12-29T20:32:08;23.25;;;4.75;;
63782;SDS011;49925;52.522;5.732;2023-12-29T20:34:35;20.30;;;4.45;;
63782;SDS011;49925;52.522;5.732;2023-12-29T20:37:03;14.10;;;3.67;;
63782;SDS011;49925;52.522;5.732;2023-12-29T20:39:30;11.25;;;3.67;;
63782;SDS011;49925;52.522;5.732;2023-12-29T20:41:57;15.23;;;4.03;;
63782;SDS011;49925;52.522;5.732;2023-12-29T20:44:25;15.45;;;4.20;;
63782;SDS011;49925;52.522;5.732;2023-12-29T20:46:53;35.90;;;6.03;;
63782;SDS011;49925;52.522;5.732;2023-12-29T20:49:20;27.83;;;4.18;;
63782;SDS011;49925;52.522;5.732;2023-12-29T20:51:47;21.92;;;4.65;;
63782;SDS011;49925;52.522;5.732;2023-12-29T20:54:14;26.23;;;5.30;;
63782;SDS011;49925;52.522;5.732;2023-12-29T20:56:42;24.17;;;4.25;;
63782;SDS011;49925;52.522;5.732;2023-12-29T20:59:10;18.42;;;3.88;;
63782;SDS011;49925;52.522;5.732;2023-12-29T21:01:37;16.75;;;4.28;;
63782;SDS011;49925;52.522;5.732;2023-12-29T21:04:05;20.42;;;4.07;;
63782;SDS011;49925;52.522;5.732;2023-12-29T21:06:36;14.30;;;3.70;;
63782;SDS011;49925;52.522;5.732;2023-12-29T21:09:05;17.42;;;4.60;;
63782;SDS011;49925;52.522;5.732;2023-12-29T21:11:32;27.05;;;6.53;;
63782;SDS011;49925;52.522;5.732;2023-12-29T21:14:00;22.73;;;5.32;;
63782;SDS011;49925;52.522;5.732;2023-12-29T21:16:27;11.98;;;3.92;;
63782;SDS011;49925;52.522;5.732;2023-12-29T21:18:54;14.63;;;4.75;;
63782;SDS011;49925;52.522;5.732;2023-12-29T21:21:22;16.55;;;4.20;;
63782;SDS011;49925;52.522;5.732;2023-12-29T21:23:50;16.13;;;3.92;;
63782;SDS011;49925;52.522;5.732;2023-12-29T21:26:20;22.50;;;3.90;;
63782;SDS011;49925;52.522;5.732;2023-12-29T21:28:49;11.98;;;3.20;;
63782;SDS011;49925;52.522;5.732;2023-12-29T21:31:17;14.25;;;2.72;;
63782;SDS011;49925;52.522;5.732;2023-12-29T21:33:47;12.60;;;2.83;;
63782;SDS011;49925;52.522;5.732;2023-12-29T21:36:25;14.35;;;3.05;;
63782;SDS011;49925;52.522;5.732;2023-12-29T21:38:53;12.18;;;3.10;;
63782;SDS011;49925;52.522;5.732;2023-12-29T21:41:22;17.35;;;2.53;;
63782;SDS011;49925;52.522;5.732;2023-12-29T21:43:49;15.85;;;4.85;;
63782;SDS011;49925;52.522;5.732;2023-12-29T21:46:18;12.35;;;2.80;;
63782;SDS011;49925;52.522;5.732;2023-12-29T21:48:49;14.73;;;2.47;;
63782;SDS011;49925;52.522;5.732;2023-12-29T21:51:17;21.92;;;2.80;;
63782;SDS011;49925;52.522;5.732;2023-12-29T21:53:51;15.27;;;2.55;;
63782;SDS011;49925;52.522;5.732;2023-12-29T21:56:18;27.80;;;2.70;;
63782;SDS011;49925;52.522;5.732;2023-12-29T21:58:46;11.75;;;2.28;;
63782;SDS011;49925;52.522;5.732;2023-12-29T22:01:32;15.63;;;2.60;;
63782;SDS011;49925;52.522;5.732;2023-12-29T22:04:05;11.85;;;2.20;;
63782;SDS011;49925;52.522;5.732;2023-12-29T22:06:37;14.55;;;2.00;;
63782;SDS011;49925;52.522;5.732;2023-12-29T22:09:07;12.63;;;2.80;;
63782;SDS011;49925;52.522;5.732;2023-12-29T22:11:35;14.05;;;2.70;;
63782;SDS011;49925;52.522;5.732;2023-12-29T22:14:03;15.02;;;2.70;;
63782;SDS011;49925;52.522;5.732;2023-12-29T22:16:31;18.33;;;2.72;;
63782;SDS011;49925;52.522;5.732;2023-12-29T22:18:58;13.50;;;2.35;;
63782;SDS011;49925;52.522;5.732;2023-12-29T22:21:25;16.92;;;2.33;;
63782;SDS011;49925;52.522;5.732;2023-12-29T22:23:53;10.70;;;2.20;;
63782;SDS011;49925;52.522;5.732;2023-12-29T22:26:20;16.63;;;3.08;;
63782;SDS011;49925;52.522;5.732;2023-12-29T22:28:48;18.75;;;2.65;;
63782;SDS011;49925;52.522;5.732;2023-12-29T22:31:17;12.95;;;2.75;;
63782;SDS011;49925;52.522;5.732;2023-12-29T22:33:48;15.93;;;2.40;;
63782;SDS011;49925;52.522;5.732;2023-12-29T22:36:16;14.13;;;2.20;;
63782;SDS011;49925;52.522;5.732;2023-12-29T22:38:46;12.95;;;2.30;;
63782;SDS011;49925;52.522;5.732;2023-12-29T22:41:17;8.18;;;2.17;;
63782;SDS011;49925;52.522;5.732;2023-12-29T22:43:46;11.85;;;2.60;;
63782;SDS011;49925;52.522;5.732;2023-12-29T22:46:15;11.68;;;2.17;;
63782;SDS011;49925;52.522;5.732;2023-12-29T22:48:49;19.40;;;3.10;;
63782;SDS011;49925;52.522;5.732;2023-12-29T22:51:16;18.48;;;2.53;;
63782;SDS011;49925;52.522;5.732;2023-12-29T22:53:44;18.42;;;2.92;;
63782;SDS011;49925;52.522;5.732;2023-12-29T22:56:11;20.38;;;2.60;;
63782;SDS011;49925;52.522;5.732;2023-12-29T22:58:38;9.48;;;2.10;;
63782;SDS011;49925;52.522;5.732;2023-12-29T23:01:06;11.68;;;2.20;;
63782;SDS011;49925;52.522;5.732;2023-12-29T23:03:35;16.75;;;2.47;;
63782;SDS011;49925;52.522;5.732;2023-12-29T23:06:02;15.02;;;2.42;;
63782;SDS011;49925;52.522;5.732;2023-12-29T23:08:29;15.77;;;2.20;;
63782;SDS011;49925;52.522;5.732;2023-12-29T23:10:57;9.18;;;1.80;;
63782;SDS011;49925;52.522;5.732;2023-12-29T23:13:24;11.88;;;2.13;;
63782;SDS011;49925;52.522;5.732;2023-12-29T23:15:52;13.98;;;2.47;;
63782;SDS011;49925;52.522;5.732;2023-12-29T23:18:19;12.68;;;2.50;;
63782;SDS011;49925;52.522;5.732;2023-12-29T23:20:46;13.48;;;2.60;;
63782;SDS011;49925;52.522;5.732;2023-12-29T23:23:13;10.25;;;2.42;;
63782;SDS011;49925;52.522;5.732;2023-12-29T23:25:41;11.57;;;2.35;;
63782;SDS011;49925;52.522;5.732;2023-12-29T23:28:08;15.63;;;2.33;;
63782;SDS011;49925;52.522;5.732;2023-12-29T23:30:35;8.90;;;2.33;;
63782;SDS011;49925;52.522;5.732;2023-12-29T23:33:03;13.90;;;2.00;;
63782;SDS011;49925;52.522;5.732;2023-12-29T23:35:31;22.20;;;2.72;;
63782;SDS011;49925;52.522;5.732;2023-12-29T23:37:58;13.00;;;1.75;;
63782;SDS011;49925;52.522;5.732;2023-12-29T23:40:25;16.00;;;3.25;;
63782;SDS011;49925;52.522;5.732;2023-12-29T23:42:52;13.93;;;1.90;;
63782;SDS011;49925;52.522;5.732;2023-12-29T23:45:20;19.20;;;2.55;;
63782;SDS011;49925;52.522;5.732;2023-12-29T23:47:48;13.98;;;2.20;;
63782;SDS011;49925;52.522;5.732;2023-12-29T23:50:15;18.23;;;2.75;;
63782;SDS011;49925;52.522;5.732;2023-12-29T23:52:42;23.38;;;2.50;;
63782;SDS011;49925;52.522;5.732;2023-12-29T23:55:10;10.90;;;2.00;;
63782;SDS011;49925;52.522;5.732;2023-12-29T23:57:37;15.77;;;2.47;;
